Time;durP1;ratioP1;P1;durP2;ratioP2;P2;SDS_P1;SDS_P2;PMS_P1;PMS_P2;Temp;Humidity;BMP_temperature;BMP_pressure;BME280_temperature;BME280_humidity;BME280_pressure;Samples;Min_cycle;Max_cycle;Signal;HPM_P1;HPM_P2
2022/12/31 00:01:06;;;;;;;28.43;13.00;;;6.90;80.60;;;;;;5075570;28;20210;-72
2022/12/31 00:03:33;;;;;;;25.77;14.40;;;6.90;81.50;;;;;;5076488;28;20181;-72
2022/12/31 00:05:58;;;;;;;27.43;13.67;;;7.00;83.60;;;;;;5073344;28;20179;-73
2022/12/31 00:08:24;;;;;;;23.80;13.27;;;7.10;83.60;;;;;;5078608;28;20191;-73
2022/12/31 00:10:50;;;;;;;26.00;12.13;;;7.10;83.50;;;;;;5074160;28;20260;-72
2022/12/31 00:13:15;;;;;;;21.23;11.70;;;7.20;83.40;;;;;;5075143;28;20664;-72
2022/12/31 00:15:42;;;;;;;27.90;11.43;;;7.20;84.20;;;;;;5075108;28;20221;-72
2022/12/31 00:18:08;;;;;;;24.53;12.17;;;7.20;84.00;;;;;;5075931;28;20178;-72
2022/12/31 00:20:37;;;;;;;29.33;13.03;;;7.20;83.70;;;;;;5072398;28;20218;-73
2022/12/31 00:23:03;;;;;;;19.40;11.87;;;7.20;83.50;;;;;;5055844;28;20186;-72
2022/12/31 00:25:28;;;;;;;20.83;11.23;;;7.20;83.30;;;;;;5075274;28;20190;-73
2022/12/31 00:27:54;;;;;;;25.13;11.67;;;7.30;83.00;;;;;;5074023;28;20744;-73
2022/12/31 00:30:20;;;;;;;23.30;11.67;;;7.30;83.20;;;;;;5057735;28;20189;-72
2022/12/31 00:32:46;;;;;;;18.33;11.23;;;7.30;82.30;;;;;;5078853;28;20197;-73
2022/12/31 00:35:11;;;;;;;21.40;11.67;;;7.40;81.90;;;;;;5072127;28;20181;-72
2022/12/31 00:37:37;;;;;;;25.27;10.57;;;7.40;81.30;;;;;;5075098;28;20248;-72
2022/12/31 00:40:03;;;;;;;17.60;11.53;;;7.40;81.50;;;;;;5075462;28;20211;-73
2022/12/31 00:42:29;;;;;;;18.57;10.00;;;7.50;81.60;;;;;;5076035;28;20182;-73
2022/12/31 00:44:55;;;;;;;26.50;11.13;;;7.50;81.40;;;;;;5074606;28;20186;-72
2022/12/31 00:47:22;;;;;;;19.63;11.60;;;7.60;81.90;;;;;;5073368;28;20229;-73
2022/12/31 00:49:48;;;;;;;30.47;12.10;;;7.60;81.40;;;;;;5054055;28;20205;-74
2022/12/31 00:52:15;;;;;;;23.13;10.90;;;7.60;81.00;;;;;;5075664;28;21764;-72
2022/12/31 00:54:41;;;;;;;21.90;13.13;;;7.70;81.40;;;;;;5057984;28;20185;-71
2022/12/31 00:57:06;;;;;;;32.60;17.53;;;7.70;81.20;;;;;;5078801;28;20175;-72
2022/12/31 00:59:32;;;;;;;30.43;16.57;;;7.80;82.40;;;;;;5075558;28;20212;-73
2022/12/31 01:01:58;;;;;;;35.93;18.87;;;7.80;82.00;;;;;;5074113;28;20202;-73
2022/12/31 01:04:23;;;;;;;35.47;19.10;;;7.70;81.40;;;;;;5075614;28;20194;-73
2022/12/31 01:06:49;;;;;;;39.40;20.73;;;7.70;81.20;;;;;;5077092;28;21263;-72
2022/12/31 01:09:17;;;;;;;41.47;20.57;;;7.80;81.60;;;;;;5078261;28;20183;-73
2022/12/31 01:11:43;;;;;;;46.73;22.30;;;7.80;81.20;;;;;;5076303;28;20964;-72
2022/12/31 01:14:10;;;;;;;45.73;22.07;;;7.80;82.90;;;;;;5078591;28;20272;-73
2022/12/31 01:16:41;;;;;;;49.50;22.30;;;7.70;82.50;;;;;;5074111;28;20179;-72
2022/12/31 01:19:10;;;;;;;36.50;22.57;;;7.70;81.90;;;;;;5076676;28;21005;-73
2022/12/31 01:21:37;;;;;;;52.17;24.57;;;7.70;82.20;;;;;;5074373;28;20190;-74
2022/12/31 01:24:04;;;;;;;50.37;23.33;;;7.60;82.20;;;;;;5073066;28;20221;-73
2022/12/31 01:26:30;;;;;;;40.67;21.67;;;7.60;82.20;;;;;;5075316;28;20199;-73
2022/12/31 01:28:56;;;;;;;48.77;22.83;;;7.50;82.10;;;;;;5056012;28;20586;-73
2022/12/31 01:31:23;;;;;;;55.20;23.13;;;7.50;81.90;;;;;;5077295;28;20186;-71
2022/12/31 01:33:49;;;;;;;45.37;23.57;;;7.50;81.60;;;;;;5073322;28;20623;-72
2022/12/31 01:36:21;;;;;;;41.27;22.10;;;7.40;81.60;;;;;;5075197;28;20179;-72
2022/12/31 01:38:46;;;;;;;46.37;22.27;;;7.40;81.60;;;;;;5076661;28;21119;-73
2022/12/31 01:41:19;;;;;;;60.87;25.03;;;7.30;81.80;;;;;;5071548;28;20183;-73
2022/12/31 01:43:53;;;;;;;38.00;21.93;;;7.30;81.30;;;;;;5075363;28;20178;-73
2022/12/31 01:46:39;;;;;;;45.37;22.90;;;7.30;81.80;;;;;;5073080;28;20189;-72
2022/12/31 01:49:22;;;;;;;45.07;22.37;;;7.20;81.80;;;;;;5072412;28;20191;-72
2022/12/31 01:51:55;;;;;;;42.53;22.73;;;7.20;83.10;;;;;;5075710;28;20365;-72
2022/12/31 01:54:23;;;;;;;48.47;22.53;;;7.10;82.70;;;;;;5075586;28;20181;-71
2022/12/31 01:56:52;;;;;;;45.27;20.67;;;7.10;83.50;;;;;;5072302;28;20183;-72
2022/12/31 01:59:20;;;;;;;38.80;18.97;;;7.00;83.20;;;;;;5070799;28;20252;-73
2022/12/31 02:01:47;;;;;;;31.53;17.73;;;6.90;84.00;;;;;;5077501;28;20170;-72
2022/12/31 02:04:15;;;;;;;32.80;17.63;;;6.90;84.00;;;;;;5074281;28;20175;-73
2022/12/31 02:06:43;;;;;;;32.20;16.40;;;6.80;83.80;;;;;;5077871;28;20233;-73
2022/12/31 02:09:11;;;;;;;26.70;15.73;;;6.60;84.70;;;;;;5055611;28;20282;-73
2022/12/31 02:11:37;;;;;;;28.43;15.30;;;6.50;84.90;;;;;;5076056;28;20174;-73
2022/12/31 02:14:15;;;;;;;34.13;16.13;;;6.50;85.20;;;;;;5055680;28;20183;-73
2022/12/31 02:17:09;;;;;;;25.70;14.77;;;6.50;85.10;;;;;;5076443;28;20178;-73
2022/12/31 02:19:40;;;;;;;30.10;16.23;;;6.50;84.80;;;;;;5073390;28;20202;-73
2022/12/31 02:22:24;;;;;;;26.50;15.30;;;6.50;84.30;;;;;;5073685;28;20774;-73
2022/12/31 02:25:08;;;;;;;33.07;17.60;;;6.50;84.40;;;;;;5077003;28;21639;-73
2022/12/31 02:28:06;;;;;;;32.13;17.37;;;6.50;83.80;;;;;;5075487;28;20658;-72
2022/12/31 02:30:33;;;;;;;36.50;18.53;;;6.50;84.90;;;;;;5074754;28;20186;-71
2022/12/31 02:33:25;;;;;;;37.73;20.27;;;6.50;85.20;;;;;;5059307;28;20190;-72
2022/12/31 02:35:58;;;;;;;40.07;19.03;;;6.50;84.30;;;;;;5075361;28;20682;-73
2022/12/31 02:38:25;;;;;;;29.53;17.40;;;6.50;85.20;;;;;;5074190;28;20205;-72
2022/12/31 02:40:55;;;;;;;32.30;17.47;;;6.50;85.70;;;;;;5075521;28;20991;-73
2022/12/31 02:43:20;;;;;;;36.27;17.77;;;6.40;85.80;;;;;;5071708;28;20183;-73
2022/12/31 02:46:12;;;;;;;28.77;15.57;;;6.40;85.70;;;;;;5075611;28;20206;-73
2022/12/31 02:48:39;;;;;;;26.97;14.70;;;6.40;85.30;;;;;;5074445;28;20266;-73
2022/12/31 02:51:14;;;;;;;24.70;14.77;;;6.40;85.10;;;;;;5053019;28;20942;-72
2022/12/31 02:53:46;;;;;;;24.23;13.90;;;6.40;85.30;;;;;;5071385;28;20186;-71
2022/12/31 02:56:21;;;;;;;28.90;14.40;;;6.40;85.40;;;;;;5075099;28;20294;-71
2022/12/31 03:04:34;;;;;;;27.50;13.47;;;6.40;85.30;;;;;;5071665;28;20193;-72
2022/12/31 03:07:09;;;;;;;29.60;14.17;;;6.40;85.60;;;;;;5055151;28;20677;-72
2022/12/31 03:09:35;;;;;;;23.67;14.63;;;6.30;85.40;;;;;;5073873;28;20195;-72
2022/12/31 03:14:46;;;;;;;25.70;13.87;;;6.30;85.10;;;;;;5075240;28;20197;-73
2022/12/31 03:17:12;;;;;;;22.33;12.47;;;6.30;85.20;;;;;;5079992;28;20196;-73
2022/12/31 03:22:28;;;;;;;32.80;14.37;;;6.20;85.40;;;;;;5082191;28;20208;-72
2022/12/31 03:27:49;;;;;;;22.53;11.10;;;6.20;85.00;;;;;;5079581;28;20229;-72
2022/12/31 03:30:17;;;;;;;28.03;12.97;;;6.20;85.60;;;;;;5074745;28;20277;-73
2022/12/31 03:32:44;;;;;;;21.20;11.57;;;6.20;85.40;;;;;;5076934;28;20179;-72
2022/12/31 03:35:12;;;;;;;21.70;12.80;;;6.20;85.20;;;;;;5079535;28;20193;-72
2022/12/31 03:37:39;;;;;;;19.57;11.93;;;6.20;85.30;;;;;;5055448;28;20175;-71
2022/12/31 03:40:07;;;;;;;23.67;13.20;;;6.20;85.10;;;;;;5076161;28;20222;-72
2022/12/31 03:42:33;;;;;;;20.90;12.23;;;6.20;85.10;;;;;;5058879;28;20721;-72
2022/12/31 03:44:59;;;;;;;25.37;12.07;;;6.20;85.00;;;;;;5076250;28;20182;-71
2022/12/31 03:47:24;;;;;;;24.83;11.77;;;6.10;85.10;;;;;;5078353;28;20183;-71
2022/12/31 03:49:50;;;;;;;24.40;12.77;;;6.10;85.10;;;;;;5074890;28;20910;-72
2022/12/31 03:52:16;;;;;;;24.30;12.47;;;6.10;84.90;;;;;;5078669;28;20213;-72
2022/12/31 03:54:41;;;;;;;26.93;13.30;;;6.10;84.90;;;;;;5077138;28;20183;-72
2022/12/31 03:57:07;;;;;;;29.03;15.10;;;6.10;85.00;;;;;;5077874;28;20206;-73
2022/12/31 03:59:33;;;;;;;26.63;14.70;;;6.10;84.70;;;;;;5077454;28;20213;-72
2022/12/31 04:01:58;;;;;;;25.57;15.40;;;6.00;85.00;;;;;;5057237;28;20183;-72
2022/12/31 04:04:24;;;;;;;28.87;14.07;;;6.00;84.60;;;;;;5077248;28;20667;-72
2022/12/31 04:06:50;;;;;;;31.73;16.90;;;6.00;84.70;;;;;;5076026;28;20186;-73
2022/12/31 04:09:15;;;;;;;28.57;15.33;;;5.90;84.30;;;;;;5075994;28;20333;-71
2022/12/31 04:11:41;;;;;;;30.27;16.33;;;5.90;84.90;;;;;;5075814;28;20186;-71
2022/12/31 04:14:07;;;;;;;40.60;16.07;;;5.80;84.60;;;;;;5077233;28;20217;-72
2022/12/31 04:16:32;;;;;;;33.27;17.17;;;5.80;84.70;;;;;;5078582;28;20178;-71
2022/12/31 04:18:58;;;;;;;32.63;15.73;;;5.70;84.60;;;;;;5077065;28;20188;-72
2022/12/31 04:21:24;;;;;;;34.23;16.33;;;5.70;84.50;;;;;;5075021;28;20600;-72
2022/12/31 04:23:50;;;;;;;31.03;16.83;;;5.70;84.60;;;;;;5073024;28;20269;-73
2022/12/31 04:26:15;;;;;;;37.80;17.10;;;5.70;84.80;;;;;;5075326;28;20265;-73
2022/12/31 04:28:41;;;;;;;35.63;16.70;;;5.60;85.40;;;;;;5076313;28;20174;-72
2022/12/31 04:31:06;;;;;;;31.37;16.70;;;5.60;85.10;;;;;;5073986;28;20271;-72
2022/12/31 04:33:32;;;;;;;35.80;15.63;;;5.60;85.10;;;;;;5074415;28;20188;-71
2022/12/31 04:36:06;;;;;;;30.30;16.13;;;5.50;85.10;;;;;;5075305;28;20258;-71
2022/12/31 04:38:33;;;;;;;32.77;17.70;;;5.50;85.10;;;;;;5076038;28;20182;-72
2022/12/31 04:41:17;;;;;;;32.40;16.70;;;5.50;85.10;;;;;;5056790;28;20229;-73
2022/12/31 04:43:48;;;;;;;30.10;15.57;;;5.50;85.40;;;;;;5062048;28;20360;-73
2022/12/31 04:46:16;;;;;;;33.60;16.57;;;5.40;85.70;;;;;;5077087;28;20192;-72
2022/12/31 04:48:42;;;;;;;35.63;15.93;;;5.40;85.50;;;;;;5076656;28;20709;-72
2022/12/31 04:51:08;;;;;;;30.37;14.50;;;5.40;86.40;;;;;;5075628;28;20194;-72
2022/12/31 04:53:34;;;;;;;29.87;14.53;;;5.40;86.00;;;;;;5075499;28;20266;-73
2022/12/31 04:56:00;;;;;;;31.40;14.27;;;5.30;85.80;;;;;;5073500;28;20179;-72
2022/12/31 04:58:26;;;;;;;28.40;14.03;;;5.30;86.50;;;;;;5075009;28;20946;-72
2022/12/31 05:00:53;;;;;;;28.20;13.20;;;5.30;86.30;;;;;;5075847;28;20214;-72
2022/12/31 05:03:20;;;;;;;22.70;13.10;;;5.30;86.30;;;;;;5059650;28;20674;-72
2022/12/31 05:05:46;;;;;;;23.53;12.77;;;5.30;86.40;;;;;;5075889;28;20175;-72
2022/12/31 05:08:12;;;;;;;23.37;13.50;;;5.30;86.30;;;;;;5072345;28;20183;-72
2022/12/31 05:10:44;;;;;;;22.93;12.40;;;5.30;86.00;;;;;;5074765;28;20191;-72
2022/12/31 05:13:10;;;;;;;18.40;11.50;;;5.30;85.70;;;;;;5077642;28;20217;-72
2022/12/31 05:15:36;;;;;;;21.07;12.87;;;5.30;86.00;;;;;;5076121;28;20185;-73
2022/12/31 05:18:02;;;;;;;21.77;12.63;;;5.30;85.90;;;;;;5074712;28;20207;-73
2022/12/31 05:20:28;;;;;;;23.47;13.93;;;5.30;85.70;;;;;;5055439;28;20221;-71
2022/12/31 05:22:54;;;;;;;26.47;13.30;;;5.30;85.90;;;;;;5056477;28;20198;-73
2022/12/31 05:25:20;;;;;;;25.33;13.70;;;5.30;86.40;;;;;;5074699;28;20240;-72
2022/12/31 05:27:45;;;;;;;26.27;14.33;;;5.20;86.10;;;;;;5075753;28;20185;-71
2022/12/31 05:30:11;;;;;;;28.60;15.07;;;5.20;86.10;;;;;;5076030;28;20600;-72
2022/12/31 05:32:37;;;;;;;28.43;15.10;;;5.20;86.00;;;;;;5071407;28;20190;-72
2022/12/31 05:35:04;;;;;;;29.90;15.03;;;5.20;86.10;;;;;;5072945;28;20178;-73
2022/12/31 05:37:29;;;;;;;29.63;15.10;;;5.20;86.00;;;;;;5076342;28;20210;-73
2022/12/31 05:39:56;;;;;;;24.57;13.73;;;5.20;86.10;;;;;;5075500;28;20332;-72
2022/12/31 05:42:22;;;;;;;31.63;15.33;;;5.20;86.10;;;;;;5073688;28;20702;-73
2022/12/31 05:44:48;;;;;;;23.47;13.20;;;5.20;85.80;;;;;;5079261;28;20170;-73
2022/12/31 05:47:14;;;;;;;27.90;14.67;;;5.10;86.10;;;;;;5072262;28;20178;-73
2022/12/31 05:49:40;;;;;;;28.97;15.63;;;5.10;86.20;;;;;;5075570;28;20201;-72
2022/12/31 05:52:07;;;;;;;24.27;13.77;;;5.10;86.40;;;;;;5075714;28;20664;-72
2022/12/31 05:54:32;;;;;;;33.37;15.00;;;5.00;86.30;;;;;;5074783;28;20184;-73
2022/12/31 05:56:58;;;;;;;30.10;15.27;;;5.00;86.60;;;;;;5074269;28;20182;-72
2022/12/31 05:59:24;;;;;;;27.70;14.80;;;5.00;86.30;;;;;;5071688;28;20555;-73
2022/12/31 06:01:50;;;;;;;32.13;15.30;;;5.00;86.50;;;;;;5072318;28;20186;-73
2022/12/31 06:04:16;;;;;;;29.20;13.70;;;4.90;86.20;;;;;;5076308;28;20213;-73
2022/12/31 06:06:42;;;;;;;25.33;13.17;;;4.90;86.20;;;;;;5073936;28;20288;-74
2022/12/31 06:09:07;;;;;;;30.73;14.63;;;4.90;86.40;;;;;;5073553;28;20273;-72
2022/12/31 06:11:33;;;;;;;30.50;13.33;;;4.90;86.70;;;;;;5076114;28;20183;-74
2022/12/31 06:13:59;;;;;;;25.77;12.93;;;5.00;86.60;;;;;;5076809;28;20316;-73
2022/12/31 06:16:25;;;;;;;20.70;11.63;;;5.00;86.70;;;;;;5074283;28;20190;-73
2022/12/31 06:18:51;;;;;;;21.30;11.20;;;5.00;86.90;;;;;;5077585;28;20174;-73
2022/12/31 06:21:18;;;;;;;16.33;10.20;;;4.90;87.30;;;;;;5073229;28;20853;-71
2022/12/31 06:23:44;;;;;;;21.97;10.63;;;5.00;87.60;;;;;;5073683;28;20203;-72
2022/12/31 06:26:10;;;;;;;17.70;10.57;;;5.00;87.40;;;;;;5075002;28;20209;-72
2022/12/31 06:28:35;;;;;;;17.83;9.93;;;5.00;87.40;;;;;;5071828;28;20670;-73
2022/12/31 06:31:03;;;;;;;18.73;9.77;;;5.00;87.50;;;;;;5071581;28;20178;-72
2022/12/31 06:33:30;;;;;;;23.20;12.60;;;5.00;87.40;;;;;;5073973;28;20178;-73
2022/12/31 06:35:56;;;;;;;20.03;10.60;;;5.10;88.10;;;;;;5072953;28;20187;-74
2022/12/31 06:38:23;;;;;;;19.80;10.47;;;5.20;88.70;;;;;;5073853;28;20186;-73
2022/12/31 06:40:49;;;;;;;21.20;10.77;;;5.40;88.70;;;;;;5074001;28;20230;-74
2022/12/31 06:43:14;;;;;;;19.07;11.27;;;5.50;89.60;;;;;;5076186;28;20311;-73
2022/12/31 06:45:40;;;;;;;19.53;10.03;;;5.80;90.20;;;;;;5071911;28;20571;-74
2022/12/31 06:48:06;;;;;;;17.23;10.57;;;5.90;90.00;;;;;;5076420;28;20870;-73
2022/12/31 06:50:32;;;;;;;20.00;10.43;;;6.20;90.40;;;;;;5072801;28;20183;-73
2022/12/31 06:52:57;;;;;;;29.93;11.47;;;6.50;90.70;;;;;;5078201;28;20170;-73
2022/12/31 06:55:23;;;;;;;20.90;10.73;;;6.80;90.60;;;;;;5079532;28;20193;-72
2022/12/31 06:57:49;;;;;;;19.27;11.50;;;7.10;90.50;;;;;;5083248;28;20213;-73
2022/12/31 07:00:16;;;;;;;18.10;10.77;;;7.50;90.30;;;;;;5059916;28;20217;-73
2022/12/31 07:03:04;;;;;;;24.17;12.40;;;7.90;89.90;;;;;;5077410;28;20187;-73
2022/12/31 07:05:48;;;;;;;21.70;12.43;;;8.30;88.60;;;;;;5077482;28;21020;-73
2022/12/31 07:08:26;;;;;;;21.43;12.90;;;8.70;87.90;;;;;;5081476;28;20205;-73
2022/12/31 07:11:16;;;;;;;19.13;12.03;;;9.10;87.40;;;;;;5078376;28;20376;-74
2022/12/31 07:14:20;;;;;;;24.08;11.73;;;9.60;85.20;;;;;;5077791;28;20174;-72
2022/12/31 07:17:16;;;;;;;21.42;12.07;;;10.00;84.60;;;;;;4978341;28;20247;-72
2022/12/31 07:19:59;;;;;;;21.65;12.60;;;10.50;82.50;;;;;;4987971;28;20225;-73
2022/12/31 07:22:25;;;;;;;21.00;13.10;;;10.90;81.80;;;;;;4986293;28;20201;-73
2022/12/31 07:24:51;;;;;;;21.17;13.30;;;11.30;82.00;;;;;;4988935;28;20214;-72
2022/12/31 07:27:26;;;;;;;22.35;12.32;;;11.70;81.40;;;;;;4984945;28;20201;-71
2022/12/31 07:30:05;;;;;;;21.38;13.25;;;12.10;79.50;;;;;;4987310;28;20217;-71
2022/12/31 07:32:58;;;;;;;25.20;14.73;;;12.50;78.90;;;;;;4983474;28;20271;-73
2022/12/31 07:35:39;;;;;;;23.20;13.60;;;12.90;78.10;;;;;;4984538;28;20194;-73
2022/12/31 07:38:42;;;;;;;22.45;12.73;;;13.40;77.00;;;;;;4983946;28;20232;-73
2022/12/31 07:41:16;;;;;;;24.63;14.20;;;13.80;76.20;;;;;;4982719;28;20229;-72
2022/12/31 07:44:07;;;;;;;22.02;14.30;;;14.20;75.10;;;;;;4981533;28;20209;-70
2022/12/31 07:46:41;;;;;;;23.67;14.57;;;14.60;74.80;;;;;;4984272;28;20253;-69
2022/12/31 07:49:11;;;;;;;25.27;14.30;;;15.00;74.00;;;;;;4984852;28;20205;-71
2022/12/31 07:51:37;;;;;;;28.05;14.82;;;15.40;72.90;;;;;;5001291;28;20190;-72
2022/12/31 07:54:03;;;;;;;22.00;14.88;;;15.80;72.40;;;;;;5077447;28;20171;-71
2022/12/31 07:56:29;;;;;;;21.70;14.40;;;16.10;71.50;;;;;;5072943;28;20183;-71
2022/12/31 07:59:19;;;;;;;22.83;15.10;;;16.40;70.00;;;;;;5076076;28;20185;-72
2022/12/31 08:02:07;;;;;;;25.90;14.25;;;16.50;67.40;;;;;;5074905;28;20269;-71
2022/12/31 08:05:05;;;;;;;25.45;14.40;;;16.50;67.10;;;;;;5056165;28;20186;-71
2022/12/31 08:07:59;;;;;;;21.23;13.50;;;16.80;68.50;;;;;;5074952;28;20189;-72
2022/12/31 08:10:39;;;;;;;22.73;14.68;;;17.00;67.30;;;;;;5077910;28;20189;-72
2022/12/31 08:13:10;;;;;;;26.88;17.63;;;17.40;68.60;;;;;;5073555;28;20294;-71
2022/12/31 08:15:39;;;;;;;29.58;18.15;;;17.70;67.70;;;;;;5075144;28;20183;-70
2022/12/31 08:18:06;;;;;;;34.67;19.15;;;18.10;67.00;;;;;;5077454;28;20354;-70
2022/12/31 08:20:38;;;;;;;30.55;20.13;;;18.40;65.10;;;;;;5077473;28;20690;-70
2022/12/31 08:23:03;;;;;;;36.70;20.33;;;18.50;63.90;;;;;;5072423;28;20183;-73
2022/12/31 08:25:29;;;;;;;29.13;19.77;;;18.50;62.50;;;;;;5075024;28;20185;-70
2022/12/31 08:28:13;;;;;;;34.53;21.90;;;18.60;63.40;;;;;;5075821;28;20210;-70
2022/12/31 08:31:18;;;;;;;32.45;20.52;;;18.70;63.40;;;;;;5075917;28;20191;-74
2022/12/31 08:34:03;;;;;;;33.20;20.70;;;18.80;62.60;;;;;;5021390;28;20203;-72
2022/12/31 08:36:40;;;;;;;27.75;18.13;;;18.70;62.90;;;;;;5002068;28;20192;-70
2022/12/31 08:39:45;;;;;;;26.98;17.70;;;18.90;63.00;;;;;;5023051;28;20192;-72
2022/12/31 08:42:21;;;;;;;25.92;17.05;;;19.20;62.30;;;;;;4974190;28;20651;-69
2022/12/31 08:45:13;;;;;;;28.92;17.65;;;19.60;62.70;;;;;;4977996;28;20201;-71
2022/12/31 08:47:43;;;;;;;25.40;16.70;;;20.00;62.50;;;;;;4973121;28;20601;-71
2022/12/31 08:50:16;;;;;;;21.08;15.35;;;20.50;61.60;;;;;;4963586;28;20186;-71
2022/12/31 08:52:42;;;;;;;22.38;13.25;;;21.00;60.60;;;;;;4979133;28;20225;-73
2022/12/31 08:55:13;;;;;;;19.38;13.38;;;21.40;60.10;;;;;;4980771;28;20198;-71
2022/12/31 08:57:57;;;;;;;19.98;14.07;;;21.70;59.20;;;;;;4978446;28;20201;-71
2022/12/31 09:03:46;;;;;;;20.02;14.68;;;22.40;58.30;;;;;;5001791;28;20205;-73
2022/12/31 09:06:30;;;;;;;19.13;13.93;;;22.70;55.70;;;;;;5014705;28;20190;-75
2022/12/31 09:08:58;;;;;;;19.77;14.93;;;22.90;56.80;;;;;;5006203;28;20281;-73
2022/12/31 09:11:39;;;;;;;21.10;13.57;;;23.20;57.10;;;;;;5009878;28;20247;-76
2022/12/31 09:14:26;;;;;;;22.30;14.90;;;23.60;57.00;;;;;;5006644;28;20193;-74
2022/12/31 09:17:41;;;;;;;22.45;15.32;;;23.80;56.10;;;;;;4992771;28;20364;-76
2022/12/31 09:20:20;;;;;;;19.83;15.40;;;24.20;53.20;;;;;;4987155;28;20296;-75
2022/12/31 09:22:47;;;;;;;19.17;14.98;;;24.30;54.60;;;;;;4998996;28;20374;-75
2022/12/31 09:25:18;;;;;;;21.10;15.07;;;24.40;54.80;;;;;;5003495;28;20189;-75
2022/12/31 09:27:53;;;;;;;25.95;17.42;;;24.40;55.10;;;;;;5009795;28;20177;-76
2022/12/31 09:30:19;;;;;;;25.33;16.67;;;24.30;55.40;;;;;;5005069;28;20195;-76
2022/12/31 09:32:54;;;;;;;22.45;16.42;;;24.20;55.40;;;;;;5026097;28;20187;-74
2022/12/31 09:35:45;;;;;;;23.98;15.43;;;24.00;55.00;;;;;;5005673;28;20348;-76
2022/12/31 09:38:22;;;;;;;25.83;17.75;;;24.10;54.40;;;;;;5015955;28;20247;-75
2022/12/31 09:40:53;;;;;;;25.27;16.73;;;24.20;54.00;;;;;;5004610;28;20230;-75
2022/12/31 09:43:22;;;;;;;24.05;17.05;;;24.20;53.40;;;;;;5000999;28;20200;-74
2022/12/31 09:46:25;;;;;;;23.90;17.08;;;24.00;53.40;;;;;;5007239;28;21100;-74
2022/12/31 09:49:24;;;;;;;24.08;16.02;;;23.80;51.80;;;;;;5005037;28;20199;-74
2022/12/31 09:52:30;;;;;;;22.10;16.02;;;23.60;52.60;;;;;;5006549;28;20192;-76
2022/12/31 09:55:20;;;;;;;19.80;14.55;;;23.40;53.00;;;;;;4958498;28;20209;-75
2022/12/31 09:57:57;;;;;;;31.30;18.83;;;23.00;53.90;;;;;;4956114;28;20190;-76
2022/12/31 10:00:31;;;;;;;28.15;18.48;;;22.90;54.80;;;;;;4947971;28;20919;-75
2022/12/31 10:03:27;;;;;;;29.58;19.35;;;23.00;53.00;;;;;;4944508;28;20246;-75
2022/12/31 10:06:02;;;;;;;29.90;19.33;;;23.10;55.50;;;;;;4958514;28;20191;-75
2022/12/31 10:08:52;;;;;;;28.33;19.73;;;23.30;55.70;;;;;;4953238;28;20201;-75
2022/12/31 10:11:37;;;;;;;35.42;21.48;;;23.60;55.80;;;;;;4948479;28;20195;-74
2022/12/31 10:14:05;;;;;;;34.60;22.30;;;23.80;54.60;;;;;;4947873;28;20191;-75
2022/12/31 10:16:36;;;;;;;37.33;24.27;;;24.00;54.70;;;;;;4950060;28;20252;-74
2022/12/31 10:19:25;;;;;;;35.03;24.30;;;24.30;53.80;;;;;;4963662;28;20198;-74
2022/12/31 10:22:22;;;;;;;35.72;24.60;;;24.60;53.20;;;;;;4964018;28;20695;-74
2022/12/31 10:25:21;;;;;;;33.90;22.92;;;24.80;52.90;;;;;;4947034;28;20190;-74
2022/12/31 10:28:05;;;;;;;31.35;22.48;;;25.10;53.40;;;;;;4944919;28;20278;-75
2022/12/31 10:30:34;;;;;;;34.35;23.73;;;25.40;51.10;;;;;;4956301;28;20186;-75
2022/12/31 10:33:19;;;;;;;30.45;22.35;;;25.40;52.60;;;;;;4997936;28;20199;-74
2022/12/31 10:36:07;;;;;;;33.30;23.25;;;25.40;52.70;;;;;;5005648;28;20186;-74
2022/12/31 10:38:52;;;;;;;31.23;20.67;;;25.40;50.00;;;;;;5005787;28;20207;-75
2022/12/31 10:41:32;;;;;;;32.95;22.42;;;25.20;51.40;;;;;;5004000;28;20215;-75
2022/12/31 10:44:23;;;;;;;29.45;22.10;;;25.20;51.40;;;;;;5003839;28;20197;-74
2022/12/31 10:47:18;;;;;;;33.78;21.73;;;25.20;50.50;;;;;;4997033;28;20915;-74
2022/12/31 10:50:14;;;;;;;28.45;20.52;;;25.20;51.60;;;;;;4937959;28;20303;-74
2022/12/31 10:53:17;;;;;;;29.20;19.02;;;25.30;52.10;;;;;;4934975;28;20237;-74
2022/12/31 10:56:00;;;;;;;27.70;18.83;;;25.50;49.50;;;;;;4927247;29;20218;-74
2022/12/31 10:59:00;;;;;;;26.58;19.67;;;25.80;52.50;;;;;;4926914;29;20589;-75
2022/12/31 11:02:00;;;;;;;25.15;16.52;;;26.00;53.30;;;;;;4943323;29;20270;-75
2022/12/31 11:04:53;;;;;;;24.33;16.77;;;26.40;51.50;;;;;;4942103;28;20187;-75
2022/12/31 11:07:48;;;;;;;21.25;16.05;;;26.70;51.10;;;;;;4941646;28;20214;-75
2022/12/31 11:10:22;;;;;;;25.15;17.35;;;26.80;51.30;;;;;;4914387;29;20197;-75
2022/12/31 11:12:51;;;;;;;23.15;17.38;;;26.90;51.90;;;;;;4906188;29;20224;-75
2022/12/31 11:16:15;;;;;;;21.08;16.20;;;27.00;51.80;;;;;;4911424;29;20678;-75
2022/12/31 11:19:00;;;;;;;19.83;15.40;;;27.10;48.70;;;;;;4813233;29;20279;-75
2022/12/31 11:21:37;;;;;;;21.58;16.17;;;27.20;51.00;;;;;;4815711;29;20227;-75
2022/12/31 11:24:23;;;;;;;19.98;16.20;;;27.30;51.50;;;;;;4816161;29;20208;-75
2022/12/31 11:27:13;;;;;;;22.98;16.58;;;27.20;46.50;;;;;;4828733;29;20704;-75
2022/12/31 11:30:01;;;;;;;19.90;16.50;;;27.10;47.80;;;;;;4835443;29;20268;-75
2022/12/31 11:32:47;;;;;;;22.35;16.88;;;27.00;51.70;;;;;;4828109;29;20213;-74
2022/12/31 11:35:27;;;;;;;22.63;16.65;;;27.00;50.70;;;;;;4833021;29;20198;-72
2022/12/31 11:38:09;;;;;;;22.33;17.13;;;27.10;51.10;;;;;;4818354;29;20203;-75
2022/12/31 11:40:40;;;;;;;23.75;18.15;;;27.00;49.50;;;;;;4826983;29;20323;-77
2022/12/31 11:43:09;;;;;;;23.73;17.23;;;26.70;48.50;;;;;;4816039;29;20203;-76
2022/12/31 11:46:02;;;;;;;25.55;17.23;;;26.40;50.90;;;;;;4828068;29;20724;-76
2022/12/31 11:48:52;;;;;;;23.45;14.95;;;26.30;51.60;;;;;;4874436;28;21012;-75
2022/12/31 11:51:41;;;;;;;23.67;16.13;;;26.10;50.40;;;;;;4956369;28;20202;-75
2022/12/31 11:54:25;;;;;;;22.23;16.13;;;25.80;50.20;;;;;;4937588;28;20187;-75
2022/12/31 11:57:07;;;;;;;25.75;17.35;;;25.10;49.20;;;;;;4948419;28;20209;-75
2022/12/31 11:59:33;;;;;;;22.88;16.75;;;24.80;48.70;;;;;;4947459;28;20213;-75
2022/12/31 12:02:23;;;;;;;25.23;17.83;;;24.70;51.70;;;;;;4946901;28;20198;-75
2022/12/31 12:04:49;;;;;;;23.70;17.02;;;24.50;49.60;;;;;;4945477;28;20195;-76
2022/12/31 12:07:17;;;;;;;22.10;16.65;;;24.40;50.60;;;;;;4945079;28;20190;-72
2022/12/31 12:09:44;;;;;;;25.95;17.45;;;24.50;52.20;;;;;;4979600;28;20227;-76
2022/12/31 12:12:11;;;;;;;20.08;16.58;;;24.40;49.90;;;;;;5002800;28;20575;-75
2022/12/31 12:14:42;;;;;;;23.65;17.23;;;24.40;51.90;;;;;;5009416;28;20208;-75
2022/12/31 12:17:14;;;;;;;25.55;17.63;;;24.60;53.30;;;;;;5003930;28;20205;-74
2022/12/31 12:19:46;;;;;;;22.73;15.93;;;24.60;51.40;;;;;;5006865;28;20217;-75
2022/12/31 12:22:23;;;;;;;22.88;17.55;;;24.60;51.90;;;;;;5007358;28;20703;-74
2022/12/31 12:24:55;;;;;;;24.42;17.95;;;24.70;51.20;;;;;;5010493;28;20173;-73
2022/12/31 12:27:23;;;;;;;24.70;17.85;;;24.80;52.20;;;;;;5004542;28;20180;-73
2022/12/31 12:29:49;;;;;;;25.08;18.13;;;25.00;51.30;;;;;;5006472;28;20243;-74
2022/12/31 12:32:18;;;;;;;24.42;17.88;;;25.00;49.00;;;;;;5006090;28;20181;-74
2022/12/31 12:34:44;;;;;;;27.65;19.45;;;25.00;50.20;;;;;;5006090;28;20177;-73
2022/12/31 12:37:33;;;;;;;28.23;19.30;;;25.10;48.70;;;;;;5004271;28;20574;-73
2022/12/31 12:40:21;;;;;;;27.17;18.85;;;25.10;49.50;;;;;;4998703;28;20221;-73
2022/12/31 12:42:48;;;;;;;31.10;20.80;;;25.10;49.10;;;;;;5004742;28;20267;-73
2022/12/31 12:45:16;;;;;;;27.65;19.80;;;25.10;49.80;;;;;;5009763;28;20196;-74
2022/12/31 12:47:44;;;;;;;29.58;20.92;;;25.10;51.40;;;;;;5005729;28;20562;-74
2022/12/31 12:50:16;;;;;;;28.05;20.38;;;24.90;49.50;;;;;;5006551;28;20661;-74
2022/12/31 12:52:54;;;;;;;29.63;19.75;;;24.80;49.00;;;;;;5008019;28;20187;-74
2022/12/31 12:55:45;;;;;;;26.63;19.08;;;24.60;51.20;;;;;;5008115;28;20193;-75
2022/12/31 12:58:19;;;;;;;27.05;19.70;;;24.30;49.90;;;;;;5005412;28;20219;-74
2022/12/31 13:01:17;;;;;;;30.38;20.58;;;24.30;50.60;;;;;;5006700;28;20219;-75
2022/12/31 13:03:49;;;;;;;28.13;19.85;;;24.20;50.10;;;;;;5004784;28;20208;-76
2022/12/31 13:06:59;;;;;;;32.67;21.05;;;24.10;52.10;;;;;;5004012;28;20648;-75
2022/12/31 13:09:30;;;;;;;30.00;20.38;;;24.10;50.10;;;;;;4924752;29;20194;-75
2022/12/31 13:12:02;;;;;;;30.13;21.27;;;23.90;50.50;;;;;;4922989;29;20191;-74
2022/12/31 13:14:47;;;;;;;27.40;19.25;;;23.80;51.30;;;;;;4906936;29;20215;-75
2022/12/31 13:17:31;;;;;;;26.95;19.13;;;23.80;50.60;;;;;;4924523;29;20195;-75
2022/12/31 13:20:31;;;;;;;29.15;19.33;;;23.70;51.10;;;;;;4918831;29;20809;-78
2022/12/31 13:23:19;;;;;;;26.40;18.92;;;23.60;50.90;;;;;;4923235;29;20239;-76
2022/12/31 13:26:00;;;;;;;37.00;20.77;;;23.50;51.10;;;;;;4921247;29;21130;-76